sensor_id;sensor_type;location;lat;lon;timestamp;P1;durP1;ratioP1;P2;durP2;ratioP2
2748;SDS011;1382;52.142;11.618;2023-01-08T00:02:01;5.57;;;5.07;;
2748;SDS011;1382;52.142;11.618;2023-01-08T00:04:30;7.50;;;5.00;;
2748;SDS011;1382;52.142;11.618;2023-01-08T00:06:56;5.10;;;4.60;;
2748;SDS011;1382;52.142;11.618;2023-01-08T00:09:23;6.90;;;4.90;;
2748;SDS011;1382;52.142;11.618;2023-01-08T00:11:50;5.17;;;4.20;;
2748;SDS011;1382;52.142;11.618;2023-01-08T00:14:16;6.23;;;4.80;;
2748;SDS011;1382;52.142;11.618;2023-01-08T00:16:43;6.87;;;5.17;;
2748;SDS011;1382;52.142;11.618;2023-01-08T00:19:10;5.43;;;4.57;;
2748;SDS011;1382;52.142;11.618;2023-01-08T00:21:39;5.90;;;5.30;;
2748;SDS011;1382;52.142;11.618;2023-01-08T00:24:05;8.13;;;4.50;;
2748;SDS011;1382;52.142;11.618;2023-01-08T00:26:32;5.60;;;5.10;;
2748;SDS011;1382;52.142;11.618;2023-01-08T00:28:59;4.80;;;4.40;;
2748;SDS011;1382;52.142;11.618;2023-01-08T00:31:26;6.70;;;5.27;;
2748;SDS011;1382;52.142;11.618;2023-01-08T00:33:52;5.07;;;4.60;;
2748;SDS011;1382;52.142;11.618;2023-01-08T00:36:19;7.70;;;4.83;;
2748;SDS011;1382;52.142;11.618;2023-01-08T00:38:47;5.10;;;4.57;;
2748;SDS011;1382;52.142;11.618;2023-01-08T00:41:14;6.27;;;5.10;;
2748;SDS011;1382;52.142;11.618;2023-01-08T00:43:41;4.60;;;4.20;;
2748;SDS011;1382;52.142;11.618;2023-01-08T00:46:08;5.73;;;5.13;;
2748;SDS011;1382;52.142;11.618;2023-01-08T00:48:35;4.70;;;4.23;;
2748;SDS011;1382;52.142;11.618;2023-01-08T00:51:02;5.17;;;4.13;;
2748;SDS011;1382;52.142;11.618;2023-01-08T00:53:29;5.47;;;5.07;;
2748;SDS011;1382;52.142;11.618;2023-01-08T00:55:59;4.30;;;3.87;;
2748;SDS011;1382;52.142;11.618;2023-01-08T00:58:26;6.30;;;4.37;;
2748;SDS011;1382;52.142;11.618;2023-01-08T01:00:53;4.20;;;3.67;;
2748;SDS011;1382;52.142;11.618;2023-01-08T01:03:20;3.90;;;3.47;;
2748;SDS011;1382;52.142;11.618;2023-01-08T01:05:47;11.93;;;4.67;;
2748;SDS011;1382;52.142;11.618;2023-01-08T01:08:14;4.77;;;4.37;;
2748;SDS011;1382;52.142;11.618;2023-01-08T01:10:41;6.07;;;4.40;;
2748;SDS011;1382;52.142;11.618;2023-01-08T01:13:09;5.33;;;4.53;;
2748;SDS011;1382;52.142;11.618;2023-01-08T01:15:36;6.10;;;4.07;;
2748;SDS011;1382;52.142;11.618;2023-01-08T01:18:03;6.00;;;4.13;;
2748;SDS011;1382;52.142;11.618;2023-01-08T01:20:29;4.97;;;4.47;;
2748;SDS011;1382;52.142;11.618;2023-01-08T01:22:57;2.87;;;2.27;;
2748;SDS011;1382;52.142;11.618;2023-01-08T01:25:24;6.87;;;5.40;;
2748;SDS011;1382;52.142;11.618;2023-01-08T01:27:50;5.60;;;4.53;;
2748;SDS011;1382;52.142;11.618;2023-01-08T01:30:19;4.60;;;4.03;;
2748;SDS011;1382;52.142;11.618;2023-01-08T01:32:45;5.83;;;4.10;;
2748;SDS011;1382;52.142;11.618;2023-01-08T01:35:12;5.30;;;4.40;;
2748;SDS011;1382;52.142;11.618;2023-01-08T01:37:39;6.47;;;5.37;;
2748;SDS011;1382;52.142;11.618;2023-01-08T01:40:06;7.13;;;4.50;;
2748;SDS011;1382;52.142;11.618;2023-01-08T01:42:33;3.07;;;2.77;;
2748;SDS011;1382;52.142;11.618;2023-01-08T01:45:00;5.53;;;5.03;;
2748;SDS011;1382;52.142;11.618;2023-01-08T01:47:28;5.90;;;4.20;;
2748;SDS011;1382;52.142;11.618;2023-01-08T01:49:59;5.57;;;4.67;;
2748;SDS011;1382;52.142;11.618;2023-01-08T01:52:29;5.03;;;4.23;;
2748;SDS011;1382;52.142;11.618;2023-01-08T01:54:58;6.70;;;5.37;;
2748;SDS011;1382;52.142;11.618;2023-01-08T01:57:26;7.17;;;5.20;;
2748;SDS011;1382;52.142;11.618;2023-01-08T01:59:53;5.90;;;5.17;;
2748;SDS011;1382;52.142;11.618;2023-01-08T02:02:23;7.63;;;6.70;;
2748;SDS011;1382;52.142;11.618;2023-01-08T02:04:51;6.00;;;4.20;;
2748;SDS011;1382;52.142;11.618;2023-01-08T02:07:19;4.23;;;3.83;;
2748;SDS011;1382;52.142;11.618;2023-01-08T02:09:53;5.60;;;4.93;;
2748;SDS011;1382;52.142;11.618;2023-01-08T02:12:28;6.50;;;4.60;;
2748;SDS011;1382;52.142;11.618;2023-01-08T02:14:59;8.80;;;5.13;;
2748;SDS011;1382;52.142;11.618;2023-01-08T02:17:34;5.80;;;4.77;;
2748;SDS011;1382;52.142;11.618;2023-01-08T02:20:10;7.30;;;4.27;;
2748;SDS011;1382;52.142;11.618;2023-01-08T02:22:51;8.23;;;6.10;;
2748;SDS011;1382;52.142;11.618;2023-01-08T02:25:29;4.60;;;3.20;;
2748;SDS011;1382;52.142;11.618;2023-01-08T02:28:08;8.03;;;5.27;;
2748;SDS011;1382;52.142;11.618;2023-01-08T02:30:37;7.13;;;4.90;;
2748;SDS011;1382;52.142;11.618;2023-01-08T02:33:04;5.97;;;4.93;;
2748;SDS011;1382;52.142;11.618;2023-01-08T02:35:35;6.47;;;5.80;;
2748;SDS011;1382;52.142;11.618;2023-01-08T02:38:04;6.67;;;5.60;;
2748;SDS011;1382;52.142;11.618;2023-01-08T02:40:32;6.53;;;5.90;;
2748;SDS011;1382;52.142;11.618;2023-01-08T02:43:05;5.30;;;3.87;;
2748;SDS011;1382;52.142;11.618;2023-01-08T02:45:41;6.60;;;5.37;;
2748;SDS011;1382;52.142;11.618;2023-01-08T02:48:12;6.90;;;5.17;;
2748;SDS011;1382;52.142;11.618;2023-01-08T02:50:43;6.60;;;4.07;;
2748;SDS011;1382;52.142;11.618;2023-01-08T02:53:17;4.50;;;4.10;;
2748;SDS011;1382;52.142;11.618;2023-01-08T02:55:47;5.43;;;4.67;;
2748;SDS011;1382;52.142;11.618;2023-01-08T02:58:18;6.83;;;5.20;;
2748;SDS011;1382;52.142;11.618;2023-01-08T03:00:46;5.00;;;4.40;;
2748;SDS011;1382;52.142;11.618;2023-01-08T03:03:15;5.57;;;4.77;;
2748;SDS011;1382;52.142;11.618;2023-01-08T03:05:45;6.33;;;5.40;;
2748;SDS011;1382;52.142;11.618;2023-01-08T03:08:14;9.97;;;5.73;;
2748;SDS011;1382;52.142;11.618;2023-01-08T03:10:44;8.97;;;6.00;;
2748;SDS011;1382;52.142;11.618;2023-01-08T03:13:15;7.30;;;4.63;;
2748;SDS011;1382;52.142;11.618;2023-01-08T03:15:50;6.87;;;5.70;;
2748;SDS011;1382;52.142;11.618;2023-01-08T03:18:23;5.97;;;5.47;;
2748;SDS011;1382;52.142;11.618;2023-01-08T03:20:54;7.30;;;6.10;;
2748;SDS011;1382;52.142;11.618;2023-01-08T03:23:21;6.63;;;6.03;;
2748;SDS011;1382;52.142;11.618;2023-01-08T03:25:48;6.30;;;5.47;;
2748;SDS011;1382;52.142;11.618;2023-01-08T03:28:16;5.37;;;4.33;;
2748;SDS011;1382;52.142;11.618;2023-01-08T03:30:47;6.43;;;5.77;;
2748;SDS011;1382;52.142;11.618;2023-01-08T03:33:15;7.27;;;5.13;;
2748;SDS011;1382;52.142;11.618;2023-01-08T03:35:45;9.80;;;5.50;;
2748;SDS011;1382;52.142;11.618;2023-01-08T03:38:16;5.30;;;4.80;;
2748;SDS011;1382;52.142;11.618;2023-01-08T03:40:46;6.90;;;4.57;;
2748;SDS011;1382;52.142;11.618;2023-01-08T03:43:16;7.90;;;5.10;;
2748;SDS011;1382;52.142;11.618;2023-01-08T03:45:45;5.87;;;5.20;;
2748;SDS011;1382;52.142;11.618;2023-01-08T03:48:14;6.20;;;5.13;;
2748;SDS011;1382;52.142;11.618;2023-01-08T03:50:42;6.87;;;4.80;;
2748;SDS011;1382;52.142;11.618;2023-01-08T03:53:09;6.77;;;5.37;;
2748;SDS011;1382;52.142;11.618;2023-01-08T03:55:36;9.10;;;5.50;;
2748;SDS011;1382;52.142;11.618;2023-01-08T03:58:03;6.53;;;5.00;;
2748;SDS011;1382;52.142;11.618;2023-01-08T04:00:29;5.50;;;4.87;;
2748;SDS011;1382;52.142;11.618;2023-01-08T04:02:57;6.27;;;4.83;;
2748;SDS011;1382;52.142;11.618;2023-01-08T04:05:24;6.10;;;4.57;;
2748;SDS011;1382;52.142;11.618;2023-01-08T04:07:53;6.57;;;4.97;;
2748;SDS011;1382;52.142;11.618;2023-01-08T04:10:20;6.60;;;5.60;;
2748;SDS011;1382;52.142;11.618;2023-01-08T04:12:47;7.60;;;4.87;;
2748;SDS011;1382;52.142;11.618;2023-01-08T04:15:14;6.87;;;6.17;;
2748;SDS011;1382;52.142;11.618;2023-01-08T04:17:40;5.90;;;5.27;;
2748;SDS011;1382;52.142;11.618;2023-01-08T04:20:09;3.83;;;3.50;;
2748;SDS011;1382;52.142;11.618;2023-01-08T04:22:36;9.47;;;5.40;;
2748;SDS011;1382;52.142;11.618;2023-01-08T04:25:03;6.33;;;5.20;;
2748;SDS011;1382;52.142;11.618;2023-01-08T04:27:30;4.87;;;4.10;;
2748;SDS011;1382;52.142;11.618;2023-01-08T04:29:57;5.30;;;4.73;;
2748;SDS011;1382;52.142;11.618;2023-01-08T04:32:24;6.37;;;5.17;;
2748;SDS011;1382;52.142;11.618;2023-01-08T04:34:50;5.33;;;4.83;;
2748;SDS011;1382;52.142;11.618;2023-01-08T04:37:18;5.90;;;4.77;;
2748;SDS011;1382;52.142;11.618;2023-01-08T04:39:45;5.40;;;4.90;;
2748;SDS011;1382;52.142;11.618;2023-01-08T04:42:12;9.73;;;4.80;;
2748;SDS011;1382;52.142;11.618;2023-01-08T04:44:39;7.20;;;4.87;;
2748;SDS011;1382;52.142;11.618;2023-01-08T04:47:05;6.40;;;4.80;;
2748;SDS011;1382;52.142;11.618;2023-01-08T04:49:32;9.23;;;3.93;;
2748;SDS011;1382;52.142;11.618;2023-01-08T04:51:59;5.07;;;3.93;;
2748;SDS011;1382;52.142;11.618;2023-01-08T04:54:27;4.80;;;4.37;;
2748;SDS011;1382;52.142;11.618;2023-01-08T04:56:53;5.10;;;3.83;;
2748;SDS011;1382;52.142;11.618;2023-01-08T04:59:20;5.80;;;4.40;;
2748;SDS011;1382;52.142;11.618;2023-01-08T05:01:47;4.53;;;4.13;;
2748;SDS011;1382;52.142;11.618;2023-01-08T05:04:14;5.50;;;4.43;;
2748;SDS011;1382;52.142;11.618;2023-01-08T05:06:40;6.83;;;5.10;;
2748;SDS011;1382;52.142;11.618;2023-01-08T05:09:07;4.23;;;3.63;;
2748;SDS011;1382;52.142;11.618;2023-01-08T05:11:35;5.10;;;4.57;;
2748;SDS011;1382;52.142;11.618;2023-01-08T05:14:02;7.13;;;4.80;;
2748;SDS011;1382;52.142;11.618;2023-01-08T05:16:29;4.73;;;4.03;;
2748;SDS011;1382;52.142;11.618;2023-01-08T05:18:56;4.70;;;4.17;;
2748;SDS011;1382;52.142;11.618;2023-01-08T05:21:23;5.13;;;4.63;;
2748;SDS011;1382;52.142;11.618;2023-01-08T05:23:49;4.77;;;4.20;;
2748;SDS011;1382;52.142;11.618;2023-01-08T05:26:16;4.80;;;4.40;;
2748;SDS011;1382;52.142;11.618;2023-01-08T05:28:44;5.27;;;4.70;;
2748;SDS011;1382;52.142;11.618;2023-01-08T05:31:11;3.73;;;3.40;;
2748;SDS011;1382;52.142;11.618;2023-01-08T05:33:38;5.20;;;4.57;;
2748;SDS011;1382;52.142;11.618;2023-01-08T05:36:05;5.50;;;4.03;;
2748;SDS011;1382;52.142;11.618;2023-01-08T05:38:33;5.23;;;3.93;;
2748;SDS011;1382;52.142;11.618;2023-01-08T05:41:00;6.47;;;4.10;;
2748;SDS011;1382;52.142;11.618;2023-01-08T05:43:27;4.50;;;4.07;;
2748;SDS011;1382;52.142;11.618;2023-01-08T05:45:56;5.50;;;4.40;;
2748;SDS011;1382;52.142;11.618;2023-01-08T05:48:23;5.57;;;4.50;;
2748;SDS011;1382;52.142;11.618;2023-01-08T05:50:50;4.70;;;3.97;;
2748;SDS011;1382;52.142;11.618;2023-01-08T05:53:16;6.00;;;4.20;;
2748;SDS011;1382;52.142;11.618;2023-01-08T05:55:44;4.43;;;4.03;;
2748;SDS011;1382;52.142;11.618;2023-01-08T05:58:11;4.47;;;4.07;;
2748;SDS011;1382;52.142;11.618;2023-01-08T06:00:38;4.70;;;4.20;;
2748;SDS011;1382;52.142;11.618;2023-01-08T06:03:06;4.37;;;3.97;;
2748;SDS011;1382;52.142;11.618;2023-01-08T06:05:33;9.13;;;4.60;;
2748;SDS011;1382;52.142;11.618;2023-01-08T06:08:00;5.20;;;4.17;;
2748;SDS011;1382;52.142;11.618;2023-01-08T06:10:26;5.70;;;4.17;;
2748;SDS011;1382;52.142;11.618;2023-01-08T06:12:53;4.80;;;4.13;;
2748;SDS011;1382;52.142;11.618;2023-01-08T06:15:20;4.17;;;3.77;;
2748;SDS011;1382;52.142;11.618;2023-01-08T06:17:47;6.40;;;3.83;;
2748;SDS011;1382;52.142;11.618;2023-01-08T06:20:15;5.03;;;4.50;;
2748;SDS011;1382;52.142;11.618;2023-01-08T06:22:42;4.67;;;4.20;;
2748;SDS011;1382;52.142;11.618;2023-01-08T06:25:09;6.47;;;5.17;;
2748;SDS011;1382;52.142;11.618;2023-01-08T06:27:35;7.37;;;4.27;;
2748;SDS011;1382;52.142;11.618;2023-01-08T06:30:06;5.17;;;4.27;;
2748;SDS011;1382;52.142;11.618;2023-01-08T06:32:33;4.40;;;3.70;;
2748;SDS011;1382;52.142;11.618;2023-01-08T06:35:00;5.33;;;3.57;;
2748;SDS011;1382;52.142;11.618;2023-01-08T06:37:28;7.30;;;5.57;;
2748;SDS011;1382;52.142;11.618;2023-01-08T06:39:55;6.33;;;4.50;;
2748;SDS011;1382;52.142;11.618;2023-01-08T06:42:21;8.20;;;4.50;;
2748;SDS011;1382;52.142;11.618;2023-01-08T06:44:48;5.43;;;4.03;;
2748;SDS011;1382;52.142;11.618;2023-01-08T06:47:15;4.90;;;4.40;;
2748;SDS011;1382;52.142;11.618;2023-01-08T06:49:42;5.27;;;4.20;;
2748;SDS011;1382;52.142;11.618;2023-01-08T06:52:09;6.03;;;4.33;;
2748;SDS011;1382;52.142;11.618;2023-01-08T06:54:37;4.30;;;3.90;;
2748;SDS011;1382;52.142;11.618;2023-01-08T06:57:04;6.70;;;4.97;;
2748;SDS011;1382;52.142;11.618;2023-01-08T06:59:31;7.80;;;4.90;;
2748;SDS011;1382;52.142;11.618;2023-01-08T07:01:57;4.20;;;3.80;;
2748;SDS011;1382;52.142;11.618;2023-01-08T07:04:24;5.03;;;4.00;;
2748;SDS011;1382;52.142;11.618;2023-01-08T07:06:51;5.67;;;4.20;;
2748;SDS011;1382;52.142;11.618;2023-01-08T07:09:18;6.50;;;4.80;;
2748;SDS011;1382;52.142;11.618;2023-01-08T07:11:46;6.00;;;4.03;;
2748;SDS011;1382;52.142;11.618;2023-01-08T07:14:13;5.03;;;4.63;;
2748;SDS011;1382;52.142;11.618;2023-01-08T07:16:40;5.00;;;4.20;;
2748;SDS011;1382;52.142;11.618;2023-01-08T07:19:06;6.57;;;4.70;;
2748;SDS011;1382;52.142;11.618;2023-01-08T07:21:33;4.90;;;4.50;;
2748;SDS011;1382;52.142;11.618;2023-01-08T07:24:00;5.70;;;4.63;;
2748;SDS011;1382;52.142;11.618;2023-01-08T07:26:26;6.80;;;4.23;;
2748;SDS011;1382;52.142;11.618;2023-01-08T07:28:54;5.90;;;4.50;;
2748;SDS011;1382;52.142;11.618;2023-01-08T07:31:21;9.63;;;4.43;;
2748;SDS011;1382;52.142;11.618;2023-01-08T07:33:48;7.10;;;4.80;;
2748;SDS011;1382;52.142;11.618;2023-01-08T07:36:15;5.70;;;4.50;;
2748;SDS011;1382;52.142;11.618;2023-01-08T07:38:41;6.53;;;4.90;;
2748;SDS011;1382;52.142;11.618;2023-01-08T07:41:08;4.67;;;4.13;;
2748;SDS011;1382;52.142;11.618;2023-01-08T07:43:35;5.80;;;4.97;;
2748;SDS011;1382;52.142;11.618;2023-01-08T07:46:03;7.30;;;4.90;;
2748;SDS011;1382;52.142;11.618;2023-01-08T07:48:30;6.57;;;4.03;;
2748;SDS011;1382;52.142;11.618;2023-01-08T07:50:59;4.33;;;3.83;;
2748;SDS011;1382;52.142;11.618;2023-01-08T07:53:26;7.57;;;4.57;;
2748;SDS011;1382;52.142;11.618;2023-01-08T07:55:57;6.07;;;4.23;;
2748;SDS011;1382;52.142;11.618;2023-01-08T07:58:24;6.80;;;4.37;;
2748;SDS011;1382;52.142;11.618;2023-01-08T08:00:51;8.63;;;4.80;;
2748;SDS011;1382;52.142;11.618;2023-01-08T08:03:19;6.47;;;4.47;;
2748;SDS011;1382;52.142;11.618;2023-01-08T08:05:46;5.63;;;4.50;;
2748;SDS011;1382;52.142;11.618;2023-01-08T08:08:13;7.30;;;5.43;;
2748;SDS011;1382;52.142;11.618;2023-01-08T08:10:40;7.10;;;5.10;;
2748;SDS011;1382;52.142;11.618;2023-01-08T08:13:07;8.57;;;4.43;;
2748;SDS011;1382;52.142;11.618;2023-01-08T08:15:35;5.70;;;4.80;;
2748;SDS011;1382;52.142;11.618;2023-01-08T08:18:03;7.00;;;4.87;;
2748;SDS011;1382;52.142;11.618;2023-01-08T08:20:32;5.50;;;4.77;;
2748;SDS011;1382;52.142;11.618;2023-01-08T08:22:59;5.03;;;4.63;;
2748;SDS011;1382;52.142;11.618;2023-01-08T08:29:25;6.83;;;5.00;;
2748;SDS011;1382;52.142;11.618;2023-01-08T08:32:14;5.77;;;5.17;;
2748;SDS011;1382;52.142;11.618;2023-01-08T08:34:54;5.77;;;4.07;;
2748;SDS011;1382;52.142;11.618;2023-01-08T08:37:22;6.07;;;4.13;;
2748;SDS011;1382;52.142;11.618;2023-01-08T08:39:49;7.40;;;5.27;;
2748;SDS011;1382;52.142;11.618;2023-01-08T08:42:15;6.80;;;5.30;;
2748;SDS011;1382;52.142;11.618;2023-01-08T08:44:42;8.37;;;4.87;;
2748;SDS011;1382;52.142;11.618;2023-01-08T08:47:09;5.57;;;4.57;;
2748;SDS011;1382;52.142;11.618;2023-01-08T08:49:36;7.80;;;4.70;;
2748;SDS011;1382;52.142;11.618;2023-01-08T08:52:03;7.20;;;5.20;;
2748;SDS011;1382;52.142;11.618;2023-01-08T08:54:31;8.60;;;6.43;;
2748;SDS011;1382;52.142;11.618;2023-01-08T08:56:58;9.47;;;6.10;;
2748;SDS011;1382;52.142;11.618;2023-01-08T08:59:24;7.00;;;5.20;;
2748;SDS011;1382;52.142;11.618;2023-01-08T09:01:51;8.47;;;5.60;;
2748;SDS011;1382;52.142;11.618;2023-01-08T09:04:18;6.87;;;5.70;;
2748;SDS011;1382;52.142;11.618;2023-01-08T09:06:45;7.40;;;5.57;;
2748;SDS011;1382;52.142;11.618;2023-01-08T09:09:14;6.50;;;5.20;;
2748;SDS011;1382;52.142;11.618;2023-01-08T09:11:42;10.47;;;5.30;;
2748;SDS011;1382;52.142;11.618;2023-01-08T09:14:12;5.93;;;5.10;;
2748;SDS011;1382;52.142;11.618;2023-01-08T09:16:39;10.80;;;6.77;;
2748;SDS011;1382;52.142;11.618;2023-01-08T09:19:05;5.07;;;4.50;;
2748;SDS011;1382;52.142;11.618;2023-01-08T09:21:34;7.40;;;5.67;;
2748;SDS011;1382;52.142;11.618;2023-01-08T09:24:01;10.70;;;6.00;;
2748;SDS011;1382;52.142;11.618;2023-01-08T09:26:28;6.37;;;5.10;;
2748;SDS011;1382;52.142;11.618;2023-01-08T09:28:56;7.90;;;6.23;;
2748;SDS011;1382;52.142;11.618;2023-01-08T09:31:24;7.97;;;6.20;;
2748;SDS011;1382;52.142;11.618;2023-01-08T09:33:51;6.77;;;5.70;;
2748;SDS011;1382;52.142;11.618;2023-01-08T09:36:18;7.77;;;5.93;;
2748;SDS011;1382;52.142;11.618;2023-01-08T09:38:45;8.70;;;6.40;;
2748;SDS011;1382;52.142;11.618;2023-01-08T09:41:12;6.97;;;6.00;;
2748;SDS011;1382;52.142;11.618;2023-01-08T09:43:45;10.43;;;5.40;;
2748;SDS011;1382;52.142;11.618;2023-01-08T09:46:17;14.27;;;6.27;;
2748;SDS011;1382;52.142;11.618;2023-01-08T09:48:45;8.97;;;6.03;;
2748;SDS011;1382;52.142;11.618;2023-01-08T09:51:14;6.30;;;5.70;;
2748;SDS011;1382;52.142;11.618;2023-01-08T09:53:43;10.87;;;6.87;;
2748;SDS011;1382;52.142;11.618;2023-01-08T09:56:12;7.07;;;6.10;;
2748;SDS011;1382;52.142;11.618;2023-01-08T09:58:40;8.40;;;6.20;;
2748;SDS011;1382;52.142;11.618;2023-01-08T10:01:10;8.17;;;6.00;;
2748;SDS011;1382;52.142;11.618;2023-01-08T10:03:41;9.37;;;6.40;;
2748;SDS011;1382;52.142;11.618;2023-01-08T10:06:11;9.00;;;7.07;;
2748;SDS011;1382;52.142;11.618;2023-01-08T10:08:40;8.37;;;5.80;;
2748;SDS011;1382;52.142;11.618;2023-01-08T10:11:12;8.40;;;6.40;;
2748;SDS011;1382;52.142;11.618;2023-01-08T10:13:40;9.10;;;6.40;;
2748;SDS011;1382;52.142;11.618;2023-01-08T10:16:11;7.67;;;6.70;;
2748;SDS011;1382;52.142;11.618;2023-01-08T10:18:46;7.00;;;6.13;;
2748;SDS011;1382;52.142;11.618;2023-01-08T10:21:13;7.27;;;6.43;;
2748;SDS011;1382;52.142;11.618;2023-01-08T10:23:47;5.90;;;5.20;;
2748;SDS011;1382;52.142;11.618;2023-01-08T10:26:23;8.30;;;5.97;;
2748;SDS011;1382;52.142;11.618;2023-01-08T10:28:51;7.47;;;6.00;;
2748;SDS011;1382;52.142;11.618;2023-01-08T10:31:17;6.37;;;5.33;;
2748;SDS011;1382;52.142;11.618;2023-01-08T10:33:45;7.70;;;6.00;;
2748;SDS011;1382;52.142;11.618;2023-01-08T10:36:16;8.60;;;5.33;;
2748;SDS011;1382;52.142;11.618;2023-01-08T10:38:48;8.37;;;7.00;;
2748;SDS011;1382;52.142;11.618;2023-01-08T10:41:18;5.30;;;4.30;;
2748;SDS011;1382;52.142;11.618;2023-01-08T10:43:48;6.53;;;5.83;;
2748;SDS011;1382;52.142;11.618;2023-01-08T10:46:20;6.30;;;5.67;;
2748;SDS011;1382;52.142;11.618;2023-01-08T10:48:51;6.70;;;5.40;;
2748;SDS011;1382;52.142;11.618;2023-01-08T10:51:20;5.97;;;4.73;;
2748;SDS011;1382;52.142;11.618;2023-01-08T10:53:48;6.97;;;5.13;;
2748;SDS011;1382;52.142;11.618;2023-01-08T10:56:19;8.43;;;5.47;;
2748;SDS011;1382;52.142;11.618;2023-01-08T10:58:48;5.60;;;5.10;;
2748;SDS011;1382;52.142;11.618;2023-01-08T11:01:15;6.13;;;4.40;;
2748;SDS011;1382;52.142;11.618;2023-01-08T11:03:47;10.20;;;5.10;;
2748;SDS011;1382;52.142;11.618;2023-01-08T11:06:19;5.10;;;4.60;;
2748;SDS011;1382;52.142;11.618;2023-01-08T11:08:48;5.67;;;5.13;;
2748;SDS011;1382;52.142;11.618;2023-01-08T11:11:17;5.50;;;4.23;;
2748;SDS011;1382;52.142;11.618;2023-01-08T11:13:49;7.37;;;4.23;;
2748;SDS011;1382;52.142;11.618;2023-01-08T11:16:21;4.17;;;3.50;;
2748;SDS011;1382;52.142;11.618;2023-01-08T11:18:56;5.63;;;4.97;;
2748;SDS011;1382;52.142;11.618;2023-01-08T11:21:24;5.47;;;4.13;;
2748;SDS011;1382;52.142;11.618;2023-01-08T11:24:02;5.47;;;4.20;;
2748;SDS011;1382;52.142;11.618;2023-01-08T11:26:41;9.40;;;3.90;;
2748;SDS011;1382;52.142;11.618;2023-01-08T11:29:12;4.00;;;3.50;;
2748;SDS011;1382;52.142;11.618;2023-01-08T11:31:42;4.60;;;3.37;;
2748;SDS011;1382;52.142;11.618;2023-01-08T11:34:17;4.53;;;3.33;;
2748;SDS011;1382;52.142;11.618;2023-01-08T11:36:48;5.33;;;4.33;;
2748;SDS011;1382;52.142;11.618;2023-01-08T11:39:18;4.87;;;3.23;;
2748;SDS011;1382;52.142;11.618;2023-01-08T11:41:50;5.20;;;4.23;;
2748;SDS011;1382;52.142;11.618;2023-01-08T11:44:37;5.03;;;3.90;;
2748;SDS011;1382;52.142;11.618;2023-01-08T11:47:11;10.37;;;4.40;;
2748;SDS011;1382;52.142;11.618;2023-01-08T11:49:53;8.37;;;4.97;;
2748;SDS011;1382;52.142;11.618;2023-01-08T11:52:40;5.70;;;4.10;;
2748;SDS011;1382;52.142;11.618;2023-01-08T11:55:13;5.20;;;4.10;;
2748;SDS011;1382;52.142;11.618;2023-01-08T11:57:55;4.80;;;4.10;;
2748;SDS011;1382;52.142;11.618;2023-01-08T12:00:43;4.57;;;3.90;;
2748;SDS011;1382;52.142;11.618;2023-01-08T12:03:25;4.90;;;4.10;;
2748;SDS011;1382;52.142;11.618;2023-01-08T12:06:01;5.17;;;3.50;;
2748;SDS011;1382;52.142;11.618;2023-01-08T12:08:38;5.13;;;4.63;;
2748;SDS011;1382;52.142;11.618;2023-01-08T12:11:11;6.83;;;4.10;;
2748;SDS011;1382;52.142;11.618;2023-01-08T12:13:49;5.80;;;4.70;;
2748;SDS011;1382;52.142;11.618;2023-01-08T12:16:43;4.23;;;3.53;;
2748;SDS011;1382;52.142;11.618;2023-01-08T12:19:22;4.80;;;4.00;;
2748;SDS011;1382;52.142;11.618;2023-01-08T12:22:02;3.63;;;3.30;;
2748;SDS011;1382;52.142;11.618;2023-01-08T12:24:45;7.13;;;5.13;;
2748;SDS011;1382;52.142;11.618;2023-01-08T12:27:26;6.37;;;3.70;;
2748;SDS011;1382;52.142;11.618;2023-01-08T12:30:23;3.97;;;3.50;;
2748;SDS011;1382;52.142;11.618;2023-01-08T12:32:59;3.33;;;2.83;;
2748;SDS011;1382;52.142;11.618;2023-01-08T12:35:29;5.23;;;3.97;;
2748;SDS011;1382;52.142;11.618;2023-01-08T12:38:03;3.30;;;3.00;;
2748;SDS011;1382;52.142;11.618;2023-01-08T12:40:36;5.50;;;4.20;;
2748;SDS011;1382;52.142;11.618;2023-01-08T12:43:07;4.80;;;3.60;;
2748;SDS011;1382;52.142;11.618;2023-01-08T12:45:39;3.50;;;3.10;;
2748;SDS011;1382;52.142;11.618;2023-01-08T12:48:11;3.77;;;3.30;;
2748;SDS011;1382;52.142;11.618;2023-01-08T12:50:45;3.60;;;3.00;;
2748;SDS011;1382;52.142;11.618;2023-01-08T12:53:23;4.80;;;3.43;;
2748;SDS011;1382;52.142;11.618;2023-01-08T12:55:57;3.83;;;3.43;;
2748;SDS011;1382;52.142;11.618;2023-01-08T12:58:32;3.00;;;2.60;;
2748;SDS011;1382;52.142;11.618;2023-01-08T13:01:09;3.47;;;3.17;;
2748;SDS011;1382;52.142;11.618;2023-01-08T13:03:41;4.07;;;3.63;;
2748;SDS011;1382;52.142;11.618;2023-01-08T13:06:10;3.70;;;3.30;;
2748;SDS011;1382;52.142;11.618;2023-01-08T13:08:43;5.10;;;3.60;;
2748;SDS011;1382;52.142;11.618;2023-01-08T13:11:22;3.20;;;2.90;;
2748;SDS011;1382;52.142;11.618;2023-01-08T13:13:56;3.40;;;2.93;;
2748;SDS011;1382;52.142;11.618;2023-01-08T13:16:25;3.67;;;3.30;;
2748;SDS011;1382;52.142;11.618;2023-01-08T13:18:53;3.20;;;2.90;;
2748;SDS011;1382;52.142;11.618;2023-01-08T13:21:34;3.93;;;3.47;;
2748;SDS011;1382;52.142;11.618;2023-01-08T13:24:19;6.70;;;3.30;;
2748;SDS011;1382;52.142;11.618;2023-01-08T13:26:51;2.90;;;2.70;;
2748;SDS011;1382;52.142;11.618;2023-01-08T13:29:22;4.20;;;2.97;;
2748;SDS011;1382;52.142;11.618;2023-01-08T13:31:51;4.50;;;3.30;;
2748;SDS011;1382;52.142;11.618;2023-01-08T13:34:19;3.93;;;3.30;;
2748;SDS011;1382;52.142;11.618;2023-01-08T13:36:58;4.03;;;3.40;;
2748;SDS011;1382;52.142;11.618;2023-01-08T13:39:32;3.43;;;2.80;;
2748;SDS011;1382;52.142;11.618;2023-01-08T13:42:02;4.27;;;3.37;;
2748;SDS011;1382;52.142;11.618;2023-01-08T13:44:46;4.53;;;3.23;;
2748;SDS011;1382;52.142;11.618;2023-01-08T13:47:16;5.00;;;3.17;;
2748;SDS011;1382;52.142;11.618;2023-01-08T13:49:49;3.47;;;2.57;;
2748;SDS011;1382;52.142;11.618;2023-01-08T13:52:26;3.57;;;3.20;;
2748;SDS011;1382;52.142;11.618;2023-01-08T13:55:17;4.40;;;3.27;;
2748;SDS011;1382;52.142;11.618;2023-01-08T13:57:47;2.67;;;2.47;;
2748;SDS011;1382;52.142;11.618;2023-01-08T14:05:31;5.03;;;3.30;;
2748;SDS011;1382;52.142;11.618;2023-01-08T14:07:20;4.30;;;3.80;;
2748;SDS011;1382;52.142;11.618;2023-01-08T14:09:48;3.03;;;2.70;;
2748;SDS011;1382;52.142;11.618;2023-01-08T14:12:16;3.63;;;2.50;;
2748;SDS011;1382;52.142;11.618;2023-01-08T14:14:47;3.10;;;2.70;;
2748;SDS011;1382;52.142;11.618;2023-01-08T14:17:15;3.53;;;2.40;;
2748;SDS011;1382;52.142;11.618;2023-01-08T14:19:43;2.43;;;2.23;;
2748;SDS011;1382;52.142;11.618;2023-01-08T14:22:13;6.33;;;3.10;;
2748;SDS011;1382;52.142;11.618;2023-01-08T14:24:43;3.10;;;2.57;;
2748;SDS011;1382;52.142;11.618;2023-01-08T14:27:19;2.33;;;1.63;;
2748;SDS011;1382;52.142;11.618;2023-01-08T14:29:48;2.83;;;2.63;;
2748;SDS011;1382;52.142;11.618;2023-01-08T14:32:15;3.03;;;2.73;;
2748;SDS011;1382;52.142;11.618;2023-01-08T14:34:43;2.70;;;2.40;;
2748;SDS011;1382;52.142;11.618;2023-01-08T14:37:12;3.07;;;2.10;;
2748;SDS011;1382;52.142;11.618;2023-01-08T14:39:39;3.07;;;2.60;;
2748;SDS011;1382;52.142;11.618;2023-01-08T14:42:06;3.93;;;2.83;;
2748;SDS011;1382;52.142;11.618;2023-01-08T14:44:39;4.07;;;2.60;;
2748;SDS011;1382;52.142;11.618;2023-01-08T14:47:11;1.97;;;1.73;;
2748;SDS011;1382;52.142;11.618;2023-01-08T14:49:42;2.97;;;2.30;;
2748;SDS011;1382;52.142;11.618;2023-01-08T14:52:09;3.87;;;2.50;;
2748;SDS011;1382;52.142;11.618;2023-01-08T14:54:38;5.03;;;2.30;;
2748;SDS011;1382;52.142;11.618;2023-01-08T14:57:05;2.40;;;2.07;;
2748;SDS011;1382;52.142;11.618;2023-01-08T14:59:32;3.20;;;2.00;;
2748;SDS011;1382;52.142;11.618;2023-01-08T15:02:03;3.47;;;2.73;;
2748;SDS011;1382;52.142;11.618;2023-01-08T15:04:33;3.80;;;2.40;;
2748;SDS011;1382;52.142;11.618;2023-01-08T15:07:04;1.93;;;1.83;;
2748;SDS011;1382;52.142;11.618;2023-01-08T15:09:32;2.47;;;2.00;;
2748;SDS011;1382;52.142;11.618;2023-01-08T15:12:01;1.87;;;1.77;;
2748;SDS011;1382;52.142;11.618;2023-01-08T15:14:29;3.00;;;2.10;;
2748;SDS011;1382;52.142;11.618;2023-01-08T15:16:57;2.80;;;2.50;;
2748;SDS011;1382;52.142;11.618;2023-01-08T15:19:31;4.07;;;2.30;;
2748;SDS011;1382;52.142;11.618;2023-01-08T15:22:04;5.20;;;2.60;;
2748;SDS011;1382;52.142;11.618;2023-01-08T15:24:43;2.67;;;2.10;;